Time;durP1;ratioP1;P1;durP2;ratioP2;P2;SDS_P1;SDS_P2;PMS_P1;PMS_P2;Temp;Humidity;BMP_temperature;BMP_pressure;BME280_temperature;BME280_humidity;BME280_pressure;Samples;Min_cycle;Max_cycle;Signal;HPM_P1;HPM_P2
2023/08/12 00:02:11;;;;;;;9.77;5.63;;;19.60;99.90;;;;;;4958492;29;20043;-89
2023/08/12 00:04:39;;;;;;;10.18;5.13;;;19.60;99.90;;;;;;4958998;29;20047;-90
2023/08/12 00:07:08;;;;;;;11.80;5.60;;;19.60;99.90;;;;;;4943094;29;20035;-90
2023/08/12 00:09:35;;;;;;;8.45;4.90;;;19.60;99.90;;;;;;4943290;29;20051;-90
2023/08/12 00:12:01;;;;;;;10.65;5.10;;;19.50;99.90;;;;;;4942677;29;20571;-90
2023/08/12 00:14:28;;;;;;;9.00;4.97;;;19.50;99.90;;;;;;4942650;29;20047;-89
2023/08/12 00:16:55;;;;;;;9.52;4.90;;;19.50;99.90;;;;;;4958346;29;20043;-89
2023/08/12 00:19:22;;;;;;;10.50;4.57;;;19.50;99.90;;;;;;4958402;29;20075;-89
2023/08/12 00:21:48;;;;;;;6.20;3.97;;;19.50;99.90;;;;;;4958536;29;20059;-89
2023/08/12 00:24:16;;;;;;;8.73;4.05;;;19.50;99.90;;;;;;4942357;29;20523;-89
2023/08/12 00:26:43;;;;;;;9.30;4.22;;;19.40;99.90;;;;;;4958114;29;20480;-90
2023/08/12 00:29:10;;;;;;;7.00;3.65;;;19.40;99.90;;;;;;4957688;29;20079;-89
2023/08/12 00:31:38;;;;;;;9.13;4.53;;;19.50;99.90;;;;;;4942356;29;20043;-89
2023/08/12 00:34:04;;;;;;;6.90;3.60;;;19.50;99.90;;;;;;4958117;29;20035;-89
2023/08/12 00:36:31;;;;;;;7.72;3.70;;;19.40;99.90;;;;;;4942708;29;20039;-90
2023/08/12 00:38:58;;;;;;;6.22;3.30;;;19.40;99.90;;;;;;4941882;29;20051;-89
2023/08/12 00:41:25;;;;;;;7.72;3.53;;;19.40;99.90;;;;;;4973665;29;20515;-89
2023/08/12 00:43:52;;;;;;;5.80;3.63;;;19.40;99.90;;;;;;4957825;29;20125;-89
2023/08/12 00:46:19;;;;;;;6.05;3.10;;;19.40;99.90;;;;;;4957311;29;20520;-90
2023/08/12 00:48:46;;;;;;;6.35;3.13;;;19.30;99.90;;;;;;4942156;29;20077;-89
2023/08/12 00:51:13;;;;;;;7.25;3.08;;;19.30;99.90;;;;;;4941795;29;20047;-90
2023/08/12 00:53:39;;;;;;;6.88;3.10;;;19.30;99.90;;;;;;4941903;29;20385;-89
2023/08/12 00:56:06;;;;;;;9.52;3.42;;;19.30;99.90;;;;;;4941670;29;20054;-89
2023/08/12 00:58:33;;;;;;;5.80;3.03;;;19.30;99.90;;;;;;4941617;29;20507;-89
2023/08/12 01:01:00;;;;;;;9.00;3.40;;;19.20;99.90;;;;;;4957794;29;20403;-89
2023/08/12 01:03:27;;;;;;;7.97;3.40;;;19.20;99.90;;;;;;4941663;29;20043;-90
2023/08/12 01:05:55;;;;;;;7.30;3.40;;;19.20;99.90;;;;;;4957361;29;20039;-89
2023/08/12 01:08:26;;;;;;;6.75;3.25;;;19.20;99.90;;;;;;4941759;29;20075;-89
2023/08/12 01:11:03;;;;;;;8.30;3.50;;;19.20;99.90;;;;;;4956781;29;20051;-89
2023/08/12 01:13:50;;;;;;;6.22;3.00;;;19.10;99.90;;;;;;4957077;29;20051;-90
2023/08/12 01:16:18;;;;;;;6.97;3.30;;;19.10;99.90;;;;;;4989037;29;20492;-89
2023/08/12 01:18:47;;;;;;;6.28;3.22;;;19.10;99.90;;;;;;4957377;29;20134;-90
2023/08/12 01:21:16;;;;;;;5.47;3.33;;;19.10;99.90;;;;;;4941037;29;20078;-90
2023/08/12 01:23:44;;;;;;;8.00;3.28;;;19.10;99.90;;;;;;4957056;29;20039;-90
2023/08/12 01:26:11;;;;;;;5.40;3.33;;;19.00;99.90;;;;;;4957434;29;20054;-91
2023/08/12 01:28:38;;;;;;;6.18;3.58;;;19.00;99.90;;;;;;4941603;29;20047;-91
2023/08/12 01:31:15;;;;;;;8.80;4.07;;;19.00;99.90;;;;;;4941688;29;20039;-90
2023/08/12 01:33:55;;;;;;;11.57;4.15;;;19.00;99.90;;;;;;4956769;29;20050;-90
2023/08/12 01:36:24;;;;;;;7.57;3.67;;;19.00;99.90;;;;;;4956396;29;20510;-90
2023/08/12 01:38:52;;;;;;;7.72;3.70;;;18.90;99.90;;;;;;4941133;29;20050;-91
2023/08/12 01:41:22;;;;;;;7.63;3.88;;;19.00;99.90;;;;;;4956640;29;20043;-90
2023/08/12 01:43:49;;;;;;;7.75;4.20;;;19.00;99.90;;;;;;4957172;29;20491;-91
2023/08/12 01:46:16;;;;;;;7.55;3.42;;;19.00;99.90;;;;;;4940929;29;20047;-91
2023/08/12 01:48:43;;;;;;;7.75;3.63;;;19.00;99.90;;;;;;4956890;29;20046;-92
2023/08/12 01:51:11;;;;;;;8.80;3.78;;;19.00;99.90;;;;;;4940975;29;20043;-90
2023/08/12 01:53:39;;;;;;;6.60;3.50;;;18.90;99.90;;;;;;4956546;29;20073;-90
2023/08/12 01:56:06;;;;;;;6.97;3.95;;;18.90;99.90;;;;;;4941065;29;20043;-88
2023/08/12 01:58:33;;;;;;;8.73;3.75;;;18.90;99.90;;;;;;4956766;29;20039;-90
2023/08/12 02:01:00;;;;;;;7.03;3.80;;;18.90;99.90;;;;;;4957371;29;20047;-90
2023/08/12 02:03:26;;;;;;;10.10;3.47;;;18.90;99.90;;;;;;4940969;29;20049;-91
2023/08/12 02:05:53;;;;;;;6.97;3.70;;;18.90;99.90;;;;;;4956882;29;20043;-91
2023/08/12 02:08:20;;;;;;;7.72;3.95;;;18.80;99.90;;;;;;4941084;29;20051;-91
2023/08/12 02:10:47;;;;;;;6.45;3.53;;;18.80;99.90;;;;;;4940808;29;20063;-91
2023/08/12 02:13:13;;;;;;;6.85;3.80;;;18.80;99.90;;;;;;4972204;29;20411;-90
2023/08/12 02:15:40;;;;;;;7.63;4.13;;;18.70;99.90;;;;;;4956400;29;20119;-91
2023/08/12 02:18:07;;;;;;;8.85;3.95;;;18.70;99.90;;;;;;4956873;29;20448;-91
2023/08/12 02:20:33;;;;;;;10.13;3.97;;;18.70;99.90;;;;;;4956391;29;20050;-90
2023/08/12 02:23:00;;;;;;;6.53;3.58;;;18.70;99.90;;;;;;4944372;29;20083;-91
2023/08/12 02:25:27;;;;;;;7.85;4.07;;;18.70;99.90;;;;;;4960229;29;20071;-90
2023/08/12 02:27:53;;;;;;;9.60;3.80;;;18.70;99.90;;;;;;4945104;29;20031;-90
2023/08/12 02:30:20;;;;;;;7.28;4.00;;;18.70;99.90;;;;;;4944663;29;20039;-91
2023/08/12 02:32:47;;;;;;;9.52;4.32;;;18.60;99.90;;;;;;4960624;29;20047;-90
2023/08/12 02:35:14;;;;;;;8.52;4.80;;;18.60;99.90;;;;;;4960013;29;20373;-91
2023/08/12 02:37:41;;;;;;;7.88;4.40;;;18.60;99.90;;;;;;4960577;29;20488;-90
2023/08/12 02:40:08;;;;;;;9.73;4.28;;;18.60;99.90;;;;;;4944892;29;20051;-90
2023/08/12 02:42:35;;;;;;;9.68;4.35;;;18.60;99.90;;;;;;4959821;29;20141;-91
2023/08/12 02:45:03;;;;;;;9.23;4.60;;;18.60;99.90;;;;;;4959530;29;20055;-90
2023/08/12 02:47:30;;;;;;;13.35;4.80;;;18.70;99.90;;;;;;4944198;29;20042;-91
2023/08/12 02:49:57;;;;;;;9.80;5.18;;;18.70;99.90;;;;;;4975640;29;20051;-91
2023/08/12 02:52:24;;;;;;;9.10;5.05;;;18.70;99.90;;;;;;4959307;29;20385;-90
2023/08/12 02:54:51;;;;;;;9.35;5.00;;;18.80;99.90;;;;;;4959718;29;20078;-90
2023/08/12 02:57:17;;;;;;;9.27;5.25;;;18.80;99.90;;;;;;4959200;29;20059;-89
2023/08/12 02:59:44;;;;;;;10.90;5.35;;;18.80;99.90;;;;;;4944466;29;20043;-90
2023/08/12 03:02:12;;;;;;;9.15;5.50;;;18.80;99.90;;;;;;4943772;29;20130;-90
2023/08/12 03:04:40;;;;;;;10.18;5.07;;;18.80;99.90;;;;;;4959301;29;20105;-90
2023/08/12 03:07:06;;;;;;;9.52;5.07;;;18.80;99.90;;;;;;4944112;29;20488;-90
2023/08/12 03:09:33;;;;;;;10.30;5.65;;;18.80;99.90;;;;;;4943875;28;20062;-90
2023/08/12 03:12:02;;;;;;;9.95;6.45;;;18.80;99.90;;;;;;4943795;29;20190;-90
2023/08/12 03:14:31;;;;;;;11.63;5.47;;;18.90;99.90;;;;;;4943503;29;20535;-90
2023/08/12 03:16:57;;;;;;;11.68;5.82;;;18.90;99.90;;;;;;4943854;29;20105;-90
2023/08/12 03:19:24;;;;;;;15.05;6.43;;;18.90;99.90;;;;;;4958751;29;20134;-90
2023/08/12 03:21:51;;;;;;;12.20;6.20;;;18.90;99.90;;;;;;4943950;29;20039;-91
2023/08/12 03:24:18;;;;;;;10.50;5.43;;;18.90;99.90;;;;;;4959467;29;20494;-90
2023/08/12 03:26:44;;;;;;;11.10;5.80;;;18.90;99.90;;;;;;4959313;29;20094;-90
2023/08/12 03:29:17;;;;;;;10.68;6.03;;;18.90;99.90;;;;;;4976069;29;20552;-90
2023/08/12 03:31:44;;;;;;;10.23;6.20;;;18.90;99.90;;;;;;4959026;29;20074;-90
2023/08/12 03:34:10;;;;;;;14.32;6.68;;;18.90;99.90;;;;;;4958820;29;20090;-90
2023/08/12 03:36:37;;;;;;;11.55;5.88;;;19.00;99.90;;;;;;4943264;29;20069;-90
2023/08/12 03:39:04;;;;;;;10.73;6.85;;;18.90;99.90;;;;;;4943814;29;20035;-89
2023/08/12 03:41:31;;;;;;;11.95;6.40;;;19.00;99.90;;;;;;4943087;29;20090;-89
2023/08/12 03:43:58;;;;;;;12.70;6.63;;;18.90;99.90;;;;;;4959395;29;20468;-90
2023/08/12 03:46:24;;;;;;;11.55;6.82;;;18.90;99.90;;;;;;4959006;29;20043;-90
2023/08/12 03:48:51;;;;;;;10.98;6.50;;;18.90;99.90;;;;;;4943123;29;20039;-90
2023/08/12 03:51:21;;;;;;;14.43;6.68;;;18.90;99.90;;;;;;4959902;29;20054;-90
2023/08/12 03:53:48;;;;;;;10.45;6.38;;;18.80;99.90;;;;;;4958842;29;20058;-90
2023/08/12 03:56:16;;;;;;;12.50;7.07;;;18.80;99.90;;;;;;4958511;29;20055;-90
2023/08/12 03:58:43;;;;;;;14.48;6.65;;;18.80;99.90;;;;;;4942844;29;20134;-90
2023/08/12 04:01:10;;;;;;;13.13;6.53;;;18.80;99.90;;;;;;4942618;29;20047;-90
2023/08/12 04:03:37;;;;;;;12.00;6.88;;;18.80;99.90;;;;;;4958385;29;20031;-90
2023/08/12 04:06:03;;;;;;;11.38;6.43;;;18.80;99.90;;;;;;4958551;29;20126;-89
2023/08/12 04:08:32;;;;;;;12.00;6.47;;;18.70;99.90;;;;;;4958478;29;20043;-90
2023/08/12 04:10:59;;;;;;;12.48;6.60;;;18.70;99.90;;;;;;4973928;29;20098;-90
2023/08/12 04:13:33;;;;;;;13.77;6.53;;;18.70;99.90;;;;;;4973878;29;20059;-87
2023/08/12 04:16:00;;;;;;;13.88;7.30;;;18.70;99.90;;;;;;4942669;29;20054;-90
2023/08/12 04:18:26;;;;;;;11.30;6.90;;;18.80;99.90;;;;;;4942448;29;20508;-87
2023/08/12 04:20:53;;;;;;;11.45;6.80;;;18.70;99.90;;;;;;4958170;29;20054;-90
2023/08/12 04:23:20;;;;;;;13.32;7.60;;;18.80;99.90;;;;;;4958352;29;20039;-90
2023/08/12 04:25:48;;;;;;;14.45;7.55;;;18.80;99.90;;;;;;4957718;29;20066;-90
2023/08/12 04:28:15;;;;;;;13.98;7.85;;;18.80;99.90;;;;;;4957848;29;20505;-90
2023/08/12 04:30:46;;;;;;;12.18;7.03;;;18.80;99.90;;;;;;4942045;29;20043;-90
2023/08/12 04:33:14;;;;;;;11.88;7.47;;;18.80;99.90;;;;;;4942660;29;20043;-90
2023/08/12 04:35:41;;;;;;;11.85;7.57;;;18.90;99.90;;;;;;4942132;29;20078;-92
2023/08/12 04:38:09;;;;;;;14.25;7.75;;;18.80;99.90;;;;;;4942204;29;20043;-92
2023/08/12 04:40:40;;;;;;;12.70;7.50;;;18.90;99.90;;;;;;4941530;29;20050;-92
2023/08/12 04:43:11;;;;;;;11.23;6.93;;;18.80;99.90;;;;;;4941962;29;20435;-92
2023/08/12 04:45:38;;;;;;;15.88;7.53;;;18.90;99.90;;;;;;4940955;29;20047;-91
2023/08/12 04:48:06;;;;;;;13.32;7.70;;;18.90;99.90;;;;;;4958056;29;20043;-91
2023/08/12 04:50:34;;;;;;;12.32;7.38;;;18.90;99.90;;;;;;4957451;29;20054;-91
2023/08/12 04:53:01;;;;;;;9.95;7.70;;;18.90;99.90;;;;;;4957794;29;20510;-92
2023/08/12 04:55:28;;;;;;;11.55;7.53;;;19.00;99.90;;;;;;4942014;29;20047;-91
2023/08/12 04:57:55;;;;;;;13.02;7.65;;;18.90;99.90;;;;;;4957123;29;20043;-92
2023/08/12 05:00:22;;;;;;;13.90;7.35;;;19.00;99.90;;;;;;4941715;29;20635;-92
2023/08/12 05:02:49;;;;;;;12.68;7.60;;;19.00;99.90;;;;;;4941547;29;20043;-92
2023/08/12 05:05:22;;;;;;;13.43;8.57;;;19.00;99.90;;;;;;4941140;29;20046;-89
2023/08/12 05:07:49;;;;;;;13.10;8.05;;;19.00;99.90;;;;;;4957518;29;20047;-89
2023/08/12 05:10:16;;;;;;;14.23;7.80;;;19.10;99.90;;;;;;4941550;29;20408;-89
2023/08/12 05:12:44;;;;;;;16.30;8.18;;;19.00;99.90;;;;;;4973357;29;20082;-89
2023/08/12 05:15:11;;;;;;;13.30;7.70;;;19.10;99.90;;;;;;4942509;29;20046;-89
2023/08/12 05:17:40;;;;;;;13.43;8.35;;;19.10;99.90;;;;;;4972899;29;20089;-88
2023/08/12 05:20:08;;;;;;;14.32;8.02;;;19.10;99.90;;;;;;4957795;29;20452;-90
2023/08/12 05:22:35;;;;;;;15.15;7.85;;;19.10;99.90;;;;;;4941593;29;20047;-89
2023/08/12 05:25:01;;;;;;;16.35;8.35;;;19.10;99.90;;;;;;4941285;29;20046;-90
2023/08/12 05:27:28;;;;;;;13.50;8.05;;;19.10;99.90;;;;;;4941495;29;20554;-90
2023/08/12 05:29:58;;;;;;;13.05;7.68;;;19.20;99.90;;;;;;4957728;29;20051;-90
2023/08/12 05:32:25;;;;;;;13.85;8.45;;;19.20;99.90;;;;;;4957153;29;20134;-90
2023/08/12 05:34:55;;;;;;;15.95;8.57;;;19.20;99.90;;;;;;4956591;29;20138;-90
2023/08/12 05:37:22;;;;;;;13.07;8.13;;;19.20;99.90;;;;;;4941721;29;20046;-90
2023/08/12 05:39:51;;;;;;;14.80;7.78;;;19.20;99.90;;;;;;4957082;29;20097;-90
2023/08/12 05:42:18;;;;;;;14.98;7.85;;;19.20;99.90;;;;;;4941640;29;20452;-90
2023/08/12 05:44:45;;;;;;;14.40;8.45;;;19.20;99.90;;;;;;4956436;29;20047;-90
2023/08/12 05:47:12;;;;;;;15.77;8.00;;;19.30;99.90;;;;;;4942681;29;20054;-91
2023/08/12 05:49:38;;;;;;;15.57;8.88;;;19.30;99.90;;;;;;4956971;29;20047;-90
2023/08/12 05:52:05;;;;;;;11.95;7.80;;;19.30;99.90;;;;;;4941276;29;20694;-90
2023/08/12 05:54:32;;;;;;;12.95;7.85;;;19.30;99.90;;;;;;4940906;29;20082;-91
2023/08/12 05:56:59;;;;;;;16.30;8.73;;;19.40;99.90;;;;;;4943337;29;20050;-91
2023/08/12 05:59:27;;;;;;;15.20;9.43;;;19.40;99.90;;;;;;4960652;29;20539;-90
2023/08/12 06:01:54;;;;;;;14.52;8.85;;;19.40;99.90;;;;;;4961189;29;20049;-90
2023/08/12 06:04:21;;;;;;;13.02;8.35;;;19.50;99.90;;;;;;4945568;29;20043;-91
2023/08/12 06:06:48;;;;;;;16.30;9.18;;;19.50;99.90;;;;;;4945061;29;20043;-91
2023/08/12 06:09:15;;;;;;;17.63;8.73;;;19.50;99.90;;;;;;4944758;28;20035;-91
2023/08/12 06:11:41;;;;;;;16.50;9.23;;;19.60;99.90;;;;;;4944846;29;20050;-90
2023/08/12 06:14:08;;;;;;;15.10;8.23;;;19.60;99.90;;;;;;4960288;29;20047;-90
2023/08/12 06:16:35;;;;;;;12.95;8.25;;;19.70;99.90;;;;;;4960575;29;20035;-89
2023/08/12 06:19:02;;;;;;;13.63;8.15;;;19.70;99.90;;;;;;4959984;29;20043;-89
2023/08/12 06:21:29;;;;;;;16.02;8.32;;;19.80;99.90;;;;;;4944265;29;20047;-89
2023/08/12 06:24:16;;;;;;;14.00;9.00;;;19.90;99.90;;;;;;4944350;29;20047;-89
2023/08/12 06:26:43;;;;;;;14.00;8.70;;;20.00;99.90;;;;;;4959359;29;20047;-89
2023/08/12 06:29:11;;;;;;;17.35;8.77;;;20.00;99.90;;;;;;4928467;29;20046;-89
2023/08/12 06:31:37;;;;;;;14.73;9.48;;;20.10;99.90;;;;;;4928969;29;20039;-89
2023/08/12 06:34:04;;;;;;;15.05;8.93;;;20.20;99.90;;;;;;4943822;29;20035;-89
2023/08/12 06:36:31;;;;;;;18.08;9.30;;;20.30;99.90;;;;;;4960159;29;20050;-89
2023/08/12 06:38:58;;;;;;;18.38;9.73;;;20.40;99.90;;;;;;4944311;29;20086;-89
2023/08/12 06:41:25;;;;;;;19.02;9.80;;;20.40;99.90;;;;;;4957617;29;20039;-90
2023/08/12 06:43:52;;;;;;;17.63;9.98;;;20.50;99.90;;;;;;4959396;29;20047;-89
2023/08/12 06:46:19;;;;;;;16.65;10.30;;;20.60;99.90;;;;;;4928339;29;20557;-89
2023/08/12 06:48:46;;;;;;;16.52;10.20;;;20.60;99.90;;;;;;4926343;29;20072;-89
2023/08/12 06:51:13;;;;;;;17.15;9.90;;;20.60;99.90;;;;;;4959352;29;20515;-89
2023/08/12 06:53:40;;;;;;;16.52;10.85;;;20.60;99.90;;;;;;4943834;29;20094;-89
2023/08/12 06:56:07;;;;;;;19.77;10.80;;;20.60;99.90;;;;;;4959460;29;20051;-89
2023/08/12 06:58:35;;;;;;;17.85;10.48;;;20.60;99.90;;;;;;4943717;29;20045;-90
2023/08/12 07:01:01;;;;;;;17.90;10.57;;;20.60;99.90;;;;;;4943645;29;20035;-89
2023/08/12 07:03:28;;;;;;;18.95;11.13;;;20.60;99.90;;;;;;4959433;29;20047;-90
2023/08/12 07:05:56;;;;;;;17.08;11.73;;;20.60;99.90;;;;;;4943156;29;20039;-90
2023/08/12 07:08:23;;;;;;;17.67;11.50;;;20.60;99.90;;;;;;4960657;28;20076;-91
2023/08/12 07:10:50;;;;;;;16.67;11.88;;;20.70;99.90;;;;;;4946643;28;20110;-90
2023/08/12 07:13:18;;;;;;;18.13;12.70;;;20.60;99.90;;;;;;4962156;28;20085;-90
2023/08/12 07:15:45;;;;;;;23.05;13.02;;;20.60;99.90;;;;;;4946760;28;20081;-89
2023/08/12 07:18:13;;;;;;;21.02;12.63;;;20.60;99.90;;;;;;4958645;29;20075;-91
2023/08/12 07:20:40;;;;;;;19.27;12.88;;;20.60;99.90;;;;;;4943029;29;20101;-91
2023/08/12 07:23:07;;;;;;;18.83;13.18;;;20.60;99.90;;;;;;4958888;29;20528;-90
2023/08/12 07:25:34;;;;;;;19.80;12.57;;;20.60;99.90;;;;;;4959346;29;20178;-91
2023/08/12 07:28:00;;;;;;;19.13;12.98;;;20.60;99.90;;;;;;4962157;29;20035;-90
2023/08/12 07:30:27;;;;;;;20.63;13.00;;;20.50;99.90;;;;;;4959227;29;20039;-90
2023/08/12 07:32:54;;;;;;;19.63;12.35;;;20.60;99.90;;;;;;4958509;29;20046;-90
2023/08/12 07:35:21;;;;;;;23.00;13.65;;;20.50;99.90;;;;;;4942511;29;20050;-90
2023/08/12 07:37:47;;;;;;;20.23;13.68;;;20.50;99.90;;;;;;4942584;29;20047;-90
2023/08/12 07:40:14;;;;;;;19.58;13.15;;;20.50;99.90;;;;;;4958569;29;20054;-91
2023/08/12 07:42:44;;;;;;;21.65;14.02;;;20.60;99.90;;;;;;4975217;29;20047;-89
2023/08/12 07:45:11;;;;;;;21.95;13.55;;;20.50;99.90;;;;;;4958057;29;20047;-90
2023/08/12 07:47:38;;;;;;;21.27;13.23;;;20.50;99.90;;;;;;4943099;29;20046;-89
2023/08/12 07:50:05;;;;;;;25.60;14.45;;;20.50;99.90;;;;;;4942370;29;20075;-88
2023/08/12 07:52:35;;;;;;;21.17;13.68;;;20.50;99.90;;;;;;4942793;29;20042;-90
2023/08/12 07:55:09;;;;;;;21.23;13.32;;;20.60;99.90;;;;;;4942505;29;20113;-89
2023/08/12 07:57:36;;;;;;;22.17;14.05;;;20.60;99.90;;;;;;4942585;29;20134;-89
2023/08/12 08:00:03;;;;;;;26.05;14.45;;;20.50;99.90;;;;;;4941971;29;20448;-88
2023/08/12 08:02:30;;;;;;;21.45;13.07;;;20.50;99.90;;;;;;4942660;29;20047;-92
2023/08/12 08:04:57;;;;;;;22.17;12.80;;;20.60;99.90;;;;;;4942947;29;20032;-91
2023/08/12 08:07:27;;;;;;;18.13;13.23;;;20.60;99.90;;;;;;4942828;29;20090;-91
2023/08/12 08:09:55;;;;;;;22.33;13.27;;;20.60;99.90;;;;;;4943573;29;20051;-90
2023/08/12 08:12:23;;;;;;;20.58;12.90;;;20.60;99.90;;;;;;4942511;29;20051;-91
2023/08/12 08:14:50;;;;;;;21.30;12.82;;;20.60;99.90;;;;;;4942465;29;20043;-90
2023/08/12 08:17:16;;;;;;;16.80;12.52;;;20.60;99.90;;;;;;4958477;29;20850;-91
2023/08/12 08:19:43;;;;;;;19.05;12.43;;;20.60;99.90;;;;;;4942171;29;20098;-90
2023/08/12 08:22:10;;;;;;;21.00;12.93;;;20.60;99.90;;;;;;4926633;29;20043;-90
2023/08/12 08:24:38;;;;;;;23.08;13.60;;;20.70;99.90;;;;;;4942603;29;20404;-90
2023/08/12 08:27:05;;;;;;;19.98;12.45;;;20.70;99.90;;;;;;4957808;29;20613;-92
2023/08/12 08:29:32;;;;;;;20.33;13.32;;;20.70;99.90;;;;;;4958375;29;20043;-93
2023/08/12 08:31:58;;;;;;;21.10;13.10;;;20.70;99.90;;;;;;4942553;29;20039;-91
2023/08/12 08:34:25;;;;;;;21.05;13.32;;;20.70;99.90;;;;;;4957246;29;20050;-90
2023/08/12 08:36:52;;;;;;;21.67;13.27;;;20.60;99.90;;;;;;4926701;29;20131;-90
2023/08/12 08:39:19;;;;;;;23.48;14.20;;;20.80;99.90;;;;;;4926110;29;20046;-91
2023/08/12 08:41:48;;;;;;;19.48;13.30;;;20.80;99.90;;;;;;4941802;29;20039;-91
2023/08/12 08:44:17;;;;;;;24.85;13.75;;;20.80;99.90;;;;;;4957381;29;20042;-90
2023/08/12 08:46:46;;;;;;;25.02;15.50;;;20.80;99.90;;;;;;4957706;29;20040;-89
2023/08/12 08:49:14;;;;;;;21.58;13.95;;;20.90;99.90;;;;;;4941045;29;20483;-91
2023/08/12 08:51:46;;;;;;;19.60;13.23;;;20.80;99.90;;;;;;4941660;29;20043;-91
2023/08/12 08:54:15;;;;;;;20.77;14.00;;;20.80;99.90;;;;;;4942011;29;20506;-87
2023/08/12 08:56:42;;;;;;;21.88;13.75;;;20.80;99.90;;;;;;4926337;29;20046;-88
2023/08/12 08:59:09;;;;;;;20.35;13.85;;;20.70;99.90;;;;;;4940916;29;20097;-87
2023/08/12 09:01:36;;;;;;;20.75;13.98;;;20.70;99.90;;;;;;4956882;29;20039;-88
2023/08/12 09:04:03;;;;;;;22.48;14.63;;;20.70;99.90;;;;;;4940831;29;20043;-88
2023/08/12 09:06:33;;;;;;;25.88;15.10;;;20.70;99.90;;;;;;4941136;29;20042;-90
2023/08/12 09:09:00;;;;;;;22.27;14.32;;;20.70;99.90;;;;;;4941893;29;20109;-89
2023/08/12 09:11:27;;;;;;;25.75;15.70;;;20.70;99.90;;;;;;4972169;29;20055;-90
2023/08/12 09:13:54;;;;;;;22.02;15.55;;;20.50;99.90;;;;;;4941557;29;20885;-89
2023/08/12 09:16:21;;;;;;;25.27;15.35;;;20.70;99.90;;;;;;4925425;29;20122;-88
2023/08/12 09:18:55;;;;;;;22.65;15.27;;;20.60;99.90;;;;;;4956840;29;20050;-90
2023/08/12 09:21:22;;;;;;;22.13;14.85;;;20.70;99.90;;;;;;4956560;29;20039;-89
2023/08/12 09:23:49;;;;;;;24.30;16.02;;;20.60;99.90;;;;;;4956689;29;20051;-90
2023/08/12 09:26:20;;;;;;;24.13;15.70;;;20.70;99.90;;;;;;4956188;29;20074;-89
2023/08/12 09:28:48;;;;;;;23.20;14.55;;;20.70;99.90;;;;;;4941174;29;20094;-89
2023/08/12 09:31:29;;;;;;;22.70;15.10;;;20.70;99.90;;;;;;4955906;29;20130;-88
2023/08/12 09:34:03;;;;;;;21.50;14.77;;;20.70;99.90;;;;;;4956860;29;20050;-89
2023/08/12 09:36:31;;;;;;;22.60;14.33;;;20.70;99.90;;;;;;4941112;29;20562;-88
2023/08/12 09:39:00;;;;;;;18.90;13.20;;;20.60;99.90;;;;;;4956547;29;20399;-86
2023/08/12 09:41:30;;;;;;;21.88;14.30;;;20.60;99.90;;;;;;4939576;29;20050;-86
2023/08/12 09:43:57;;;;;;;19.63;14.05;;;20.60;99.90;;;;;;4940050;29;20567;-86
2023/08/12 09:46:24;;;;;;;21.08;13.45;;;20.60;99.90;;;;;;4939679;29;20182;-87
2023/08/12 09:48:52;;;;;;;19.23;13.63;;;20.60;99.90;;;;;;4939845;29;20042;-87
2023/08/12 09:51:22;;;;;;;19.75;14.00;;;20.50;99.90;;;;;;4956246;28;20047;-86
2023/08/12 09:53:49;;;;;;;22.08;13.82;;;20.50;99.90;;;;;;4959353;28;20528;-91
2023/08/12 09:56:19;;;;;;;17.77;12.82;;;20.40;99.90;;;;;;4959336;28;20042;-86
2023/08/12 09:58:50;;;;;;;19.42;13.02;;;20.40;99.90;;;;;;4975673;28;20150;-88
2023/08/12 10:01:21;;;;;;;19.85;13.43;;;20.40;99.90;;;;;;4975006;28;20046;-88
2023/08/12 10:03:51;;;;;;;19.58;13.20;;;20.30;99.90;;;;;;4959145;28;20043;-90
2023/08/12 10:06:18;;;;;;;18.33;12.65;;;20.30;99.90;;;;;;4956089;29;20051;-90
2023/08/12 10:08:49;;;;;;;19.67;12.93;;;20.30;99.90;;;;;;4956082;29;20039;-90
2023/08/12 10:11:16;;;;;;;18.70;12.90;;;20.30;99.90;;;;;;4955303;29;20114;-90
2023/08/12 10:13:43;;;;;;;19.73;12.93;;;20.30;99.90;;;;;;4955843;29;20396;-90
2023/08/12 10:16:11;;;;;;;18.13;12.88;;;20.30;99.90;;;;;;4940545;29;20043;-91
2023/08/12 10:18:42;;;;;;;17.60;11.30;;;20.30;99.90;;;;;;4940968;29;20377;-91
2023/08/12 10:21:11;;;;;;;16.67;10.63;;;20.30;99.90;;;;;;4940033;29;20062;-92
2023/08/12 10:23:41;;;;;;;14.25;9.82;;;20.20;99.90;;;;;;4940390;29;20082;-92
2023/08/12 10:26:09;;;;;;;10.05;6.80;;;19.90;99.90;;;;;;4956060;29;20546;-92
2023/08/12 10:28:38;;;;;;;11.73;6.30;;;20.10;99.90;;;;;;4955968;29;20109;-91
2023/08/12 10:31:06;;;;;;;8.25;5.85;;;20.10;99.90;;;;;;4956797;29;20047;-92
2023/08/12 10:33:39;;;;;;;9.40;5.97;;;20.10;99.90;;;;;;4955864;29;20047;-94
2023/08/12 10:36:07;;;;;;;9.05;6.03;;;20.10;99.90;;;;;;4955592;29;20047;-92
2023/08/12 10:38:35;;;;;;;7.03;5.30;;;20.10;99.90;;;;;;4939876;29;20047;-92
2023/08/12 10:41:23;;;;;;;9.27;5.45;;;20.10;99.90;;;;;;4955580;29;20113;-92
2023/08/12 10:43:56;;;;;;;7.20;4.32;;;20.10;99.90;;;;;;4956378;29;20176;-91
2023/08/12 10:46:44;;;;;;;7.88;4.28;;;20.10;99.90;;;;;;4957545;29;20047;-91
2023/08/12 10:49:12;;;;;;;6.30;4.38;;;20.00;99.90;;;;;;4966028;29;20106;-91
2023/08/12 10:51:41;;;;;;;8.80;4.30;;;20.00;99.90;;;;;;4958795;29;20047;-92
2023/08/12 10:54:14;;;;;;;6.78;4.18;;;19.90;99.90;;;;;;4959103;29;20047;-92
2023/08/12 10:57:38;;;;;;;9.60;4.20;;;19.90;99.90;;;;;;4977777;29;20098;-92
2023/08/12 11:00:07;;;;;;;5.72;3.50;;;19.90;99.90;;;;;;4958985;29;20110;-92
2023/08/12 11:02:36;;;;;;;6.00;3.72;;;19.90;99.90;;;;;;4959114;29;20083;-93
2023/08/12 11:05:07;;;;;;;6.47;4.40;;;19.90;99.90;;;;;;4959328;29;20043;-92
2023/08/12 11:08:09;;;;;;;7.17;4.73;;;19.90;99.90;;;;;;4973771;29;20035;-93
2023/08/12 11:10:36;;;;;;;8.40;4.13;;;19.90;99.90;;;;;;4958470;29;20655;-92
2023/08/12 11:13:03;;;;;;;5.10;3.88;;;19.90;99.90;;;;;;4943424;29;20048;-91
2023/08/12 11:15:47;;;;;;;6.63;4.00;;;19.90;99.90;;;;;;4958895;29;20098;-92
2023/08/12 11:18:16;;;;;;;10.98;4.28;;;20.00;99.90;;;;;;4943969;29;20039;-92
2023/08/12 11:20:47;;;;;;;8.35;4.18;;;20.00;99.90;;;;;;4958670;29;20047;-92
2023/08/12 11:23:16;;;;;;;6.65;4.00;;;20.00;99.90;;;;;;4959152;29;20039;-92
2023/08/12 11:25:49;;;;;;;6.97;4.28;;;20.10;99.90;;;;;;4943595;29;20043;-93
2023/08/12 11:28:21;;;;;;;5.68;3.88;;;20.20;99.90;;;;;;4959319;29;20094;-92
2023/08/12 11:30:48;;;;;;;7.05;4.05;;;20.20;99.90;;;;;;4959419;29;20579;-93
2023/08/12 11:33:18;;;;;;;4.82;3.63;;;20.30;99.90;;;;;;4958869;29;20046;-92
2023/08/12 11:35:48;;;;;;;5.90;3.40;;;20.30;99.90;;;;;;4958835;29;20437;-93
2023/08/12 11:38:15;;;;;;;5.82;3.72;;;20.40;99.90;;;;;;4944024;29;20043;-93
2023/08/12 11:40:44;;;;;;;6.47;3.33;;;20.40;99.90;;;;;;4958661;29;20154;-93
2023/08/12 11:43:14;;;;;;;6.13;3.95;;;20.40;99.90;;;;;;4944235;29;20043;-93
2023/08/12 11:45:46;;;;;;;5.65;3.47;;;20.40;99.90;;;;;;4958927;29;20046;-93
2023/08/12 11:48:25;;;;;;;21.45;4.53;;;20.50;99.90;;;;;;4943675;29;20094;-93
2023/08/12 11:50:56;;;;;;;6.10;3.60;;;20.60;99.90;;;;;;4944325;29;20043;-92
2023/08/12 11:53:29;;;;;;;6.35;3.85;;;20.60;99.90;;;;;;4942911;28;20074;-91
2023/08/12 11:55:56;;;;;;;5.22;3.90;;;20.60;99.90;;;;;;4958692;29;20051;-92
2023/08/12 11:58:35;;;;;;;6.47;3.70;;;20.60;99.90;;;;;;4943048;29;20043;-91
2023/08/12 12:01:05;;;;;;;5.88;3.67;;;20.50;99.90;;;;;;4958255;29;20095;-92
2023/08/12 12:03:32;;;;;;;5.80;4.00;;;20.50;99.90;;;;;;4942845;29;20078;-91
2023/08/12 12:05:59;;;;;;;5.60;3.55;;;20.60;99.90;;;;;;4942294;29;20097;-91
2023/08/12 12:08:26;;;;;;;4.90;3.05;;;20.60;99.90;;;;;;4960492;28;20395;-88
2023/08/12 12:10:55;;;;;;;4.60;2.88;;;20.60;99.90;;;;;;4951234;29;20059;-90
2023/08/12 12:13:25;;;;;;;4.63;2.47;;;20.50;99.90;;;;;;4938904;29;20051;-90
2023/08/12 12:16:00;;;;;;;4.43;2.42;;;20.50;99.90;;;;;;4939822;29;20083;-92
2023/08/12 12:18:27;;;;;;;3.10;1.70;;;20.40;99.90;;;;;;4924038;29;20085;-89
2023/08/12 12:20:58;;;;;;;3.22;1.70;;;20.20;99.90;;;;;;4938974;29;20127;-91
2023/08/12 12:23:29;;;;;;;3.70;1.50;;;20.20;99.90;;;;;;4938866;29;20436;-90
2023/08/12 12:26:01;;;;;;;3.38;1.75;;;20.10;99.90;;;;;;4923320;29;20044;-91
2023/08/12 12:28:28;;;;;;;3.03;1.48;;;20.00;99.90;;;;;;4938539;29;20051;-90
2023/08/12 12:30:55;;;;;;;6.07;1.70;;;20.00;99.90;;;;;;4938982;29;20401;-92
2023/08/12 12:33:23;;;;;;;3.55;1.80;;;20.10;99.90;;;;;;4938995;29;20035;-92
2023/08/12 12:35:50;;;;;;;4.40;2.05;;;20.00;99.90;;;;;;4953968;29;20052;-93
2023/08/12 12:38:17;;;;;;;3.53;1.60;;;19.90;99.90;;;;;;4957586;29;20377;-93
2023/08/12 12:40:48;;;;;;;3.22;1.85;;;19.90;99.90;;;;;;4989341;28;20043;-92
2023/08/12 12:43:15;;;;;;;3.38;1.50;;;19.90;99.90;;;;;;4942298;29;20484;-94
2023/08/12 12:45:42;;;;;;;2.60;1.35;;;19.90;99.90;;;;;;4941373;29;20047;-91